createdAt,value
2024-04-06T00:00:17.088Z,13.0360
2024-04-06T00:01:18.505Z,12.8247
2024-04-06T00:02:19.904Z,13.0217
2024-04-06T00:03:23.807Z,12.2939
2024-04-06T00:04:23.194Z,12.3321
2024-04-06T00:05:24.485Z,12.2415
2024-04-06T00:06:25.733Z,12.5109
2024-04-06T00:07:27.048Z,12.5768
2024-04-06T00:08:28.319Z,12.3126
2024-04-06T00:09:29.608Z,12.2239
2024-04-06T00:10:30.861Z,12.6442
2024-04-06T00:11:32.169Z,13.3885
2024-04-06T00:12:33.635Z,13.1371
2024-04-06T00:13:35.038Z,12.9298
2024-04-06T00:14:36.307Z,12.9227
2024-04-06T00:15:37.587Z,12.7843
2024-04-06T00:16:38.882Z,12.7515
2024-04-06T00:17:40.172Z,12.5272
2024-04-06T00:18:41.611Z,12.4009
2024-04-06T00:19:43.104Z,12.3329
2024-04-06T00:20:44.488Z,12.0192
2024-04-06T00:21:45.940Z,11.8821
2024-04-06T00:22:47.385Z,11.9240
2024-04-06T00:23:48.812Z,12.0784
2024-04-06T00:24:50.255Z,12.6456
2024-04-06T00:25:51.691Z,12.3521
2024-04-06T00:26:53.189Z,12.1249
2024-04-06T00:27:54.556Z,12.2999
2024-04-06T00:28:55.828Z,12.1402
2024-04-06T00:29:57.134Z,12.0874
2024-04-06T00:30:58.392Z,12.0260
2024-04-06T00:31:59.692Z,11.9129
2024-04-06T00:33:01.149Z,12.5443
2024-04-06T00:34:02.591Z,12.6959
2024-04-06T00:35:04.013Z,13.3203
2024-04-06T00:36:05.445Z,13.4156
2024-04-06T00:37:06.888Z,13.9883
2024-04-06T00:38:08.328Z,14.1817
2024-04-06T00:39:09.774Z,13.8493
2024-04-06T00:40:11.240Z,13.6132
2024-04-06T00:41:12.614Z,14.0217
2024-04-06T00:42:14.067Z,14.3561
2024-04-06T00:43:15.506Z,13.8087
2024-04-06T00:44:16.949Z,13.4326
2024-04-06T00:45:18.381Z,14.1212
2024-04-06T00:46:19.827Z,14.0045
2024-04-06T00:47:21.147Z,13.9624
2024-04-06T00:48:22.450Z,13.6857
2024-04-06T00:49:23.725Z,13.0663
2024-04-06T00:50:25.064Z,13.2045
2024-04-06T00:51:26.400Z,13.3401
2024-04-06T00:52:27.819Z,13.5229
2024-04-06T00:53:29.317Z,13.6470
2024-04-06T00:54:30.698Z,13.6992
2024-04-06T00:55:32.147Z,13.6315
2024-04-06T00:56:33.584Z,14.0070
2024-04-06T00:57:35.025Z,14.0385
2024-04-06T00:58:36.365Z,13.5825
2024-04-06T00:59:37.705Z,13.3852
2024-04-06T01:00:39.032Z,13.6445
2024-04-06T01:01:44.326Z,14.3014
2024-04-06T01:02:40.332Z,14.3233
2024-04-06T01:03:41.758Z,14.2292
2024-04-06T01:04:43.198Z,13.7612
2024-04-06T01:05:44.517Z,13.8779
2024-04-06T01:06:45.845Z,14.3946
2024-04-06T01:07:47.183Z,14.2469
2024-04-06T01:08:48.628Z,14.1492
2024-04-06T01:09:50.067Z,14.1058
2024-04-06T01:10:51.506Z,14.3327
2024-04-06T01:11:52.946Z,14.3474
2024-04-06T01:12:54.376Z,14.2647
2024-04-06T01:13:55.816Z,14.2243
2024-04-06T01:14:57.259Z,14.1341
2024-04-06T01:15:58.766Z,14.4332
2024-04-06T01:17:00.157Z,14.1129
2024-04-06T01:18:01.587Z,14.1718
2024-04-06T01:19:03.031Z,14.3152
2024-04-06T01:20:04.462Z,14.6540
2024-04-06T01:21:05.898Z,14.6932
2024-04-06T01:22:07.348Z,14.7789
2024-04-06T01:23:08.644Z,14.6883
2024-04-06T01:24:10.057Z,14.4954
2024-04-06T01:25:11.377Z,14.3540
2024-04-06T01:26:12.846Z,14.1264
2024-04-06T01:27:14.198Z,14.1538
2024-04-06T01:28:15.647Z,14.2417
2024-04-06T01:29:17.070Z,14.3410
2024-04-06T01:30:18.511Z,14.7978
2024-04-06T01:31:19.943Z,14.6376
2024-04-06T01:32:21.477Z,14.7367
2024-04-06T01:33:22.827Z,15.0034
2024-04-06T01:34:24.282Z,15.0006
2024-04-06T01:35:25.862Z,15.0089
2024-04-06T01:36:27.226Z,14.9795
2024-04-06T01:37:28.595Z,14.9734
2024-04-06T01:38:30.107Z,15.1424
2024-04-06T01:39:31.495Z,15.0455
2024-04-06T01:40:33.048Z,14.9087
2024-04-06T01:41:34.378Z,14.9104
2024-04-06T01:42:35.827Z,14.9563
2024-04-06T01:43:37.263Z,15.0017
2024-04-06T01:44:38.711Z,15.3727
2024-04-06T01:45:40.137Z,15.2131
2024-04-06T01:46:41.577Z,15.3587
2024-04-06T01:47:43.026Z,15.2737
2024-04-06T01:48:44.375Z,15.0763
2024-04-06T01:49:45.687Z,14.5920
2024-04-06T01:50:47.009Z,14.5001
2024-04-06T01:51:48.459Z,14.5545
2024-04-06T01:52:49.907Z,14.3663
2024-04-06T01:53:51.315Z,14.1242
2024-04-06T01:54:52.602Z,14.1973
2024-04-06T01:55:53.947Z,14.4745
2024-04-06T01:56:55.345Z,14.2274
2024-04-06T01:57:56.774Z,13.9425
2024-04-06T01:58:58.229Z,14.6771
2024-04-06T01:59:59.672Z,14.9669
2024-04-06T02:01:01.118Z,14.9099
2024-04-06T02:02:02.545Z,15.2301
2024-04-06T02:03:03.848Z,14.8560
2024-04-06T02:04:05.190Z,14.9461
2024-04-06T02:05:06.539Z,14.9696
2024-04-06T02:06:07.949Z,15.2574
2024-04-06T02:07:09.430Z,14.9643
2024-04-06T02:08:10.862Z,14.8945
2024-04-06T02:09:12.316Z,15.1924
2024-04-06T02:10:13.752Z,15.1832
2024-04-06T02:11:15.167Z,14.9387
2024-04-06T02:12:16.639Z,15.1613
2024-04-06T02:13:18.073Z,15.3541
2024-04-06T02:14:19.607Z,15.2423
2024-04-06T02:15:20.924Z,15.1881
2024-04-06T02:16:22.387Z,15.0180
2024-04-06T02:17:23.861Z,15.0309
2024-04-06T02:18:25.267Z,15.1416
2024-04-06T02:19:26.783Z,15.1515
2024-04-06T02:20:28.232Z,14.9604
2024-04-06T02:21:29.594Z,15.0570
2024-04-06T02:22:31.353Z,14.9322
2024-04-06T02:23:32.794Z,15.1047
2024-04-06T02:24:34.261Z,15.2115
2024-04-06T02:25:35.662Z,14.6724
2024-04-06T02:26:37.089Z,14.6410
2024-04-06T02:27:38.552Z,14.5675
2024-04-06T02:28:39.981Z,14.7959
2024-04-06T02:29:41.430Z,15.0012
2024-04-06T02:30:42.709Z,14.7243
2024-04-06T02:31:44.070Z,15.1710
2024-04-06T02:32:45.429Z,15.2575
2024-04-06T02:33:46.856Z,15.0741
2024-04-06T02:34:48.337Z,14.9723
2024-04-06T02:35:49.745Z,15.2591
2024-04-06T02:36:51.037Z,15.3377
2024-04-06T02:37:52.355Z,15.2729
2024-04-06T02:38:53.682Z,14.7866
2024-04-06T02:39:54.955Z,14.3829
2024-04-06T02:40:56.251Z,14.0264
2024-04-06T02:41:57.774Z,13.3718
2024-04-06T02:42:59.261Z,12.9950
2024-04-06T02:44:00.620Z,12.9020
2024-04-06T02:45:02.155Z,12.5657
2024-04-06T02:46:03.501Z,12.6636
2024-04-06T02:47:04.943Z,12.1416
2024-04-06T02:48:06.386Z,11.8251
2024-04-06T02:49:07.816Z,12.2845
2024-04-06T02:50:09.248Z,11.9952
2024-04-06T02:51:10.704Z,11.9815
2024-04-06T02:52:12.143Z,11.6906
2024-04-06T02:53:13.567Z,11.5532
2024-04-06T02:54:15.026Z,11.5106
2024-04-06T02:55:16.466Z,11.4610
2024-04-06T02:56:17.911Z,11.6410
2024-04-06T02:57:19.346Z,11.3325
2024-04-06T02:58:20.755Z,11.1482
2024-04-06T02:59:22.212Z,10.9497
2024-04-06T03:00:23.666Z,10.7585
2024-04-06T03:01:25.097Z,10.7016
2024-04-06T03:02:26.575Z,10.6030
2024-04-06T03:03:27.995Z,10.7675
2024-04-06T03:04:29.415Z,11.3364
2024-04-06T03:05:30.724Z,11.7721
2024-04-06T03:06:32.007Z,12.2753
2024-04-06T03:07:33.526Z,12.0952
2024-04-06T03:08:34.867Z,12.1612
2024-04-06T03:09:36.316Z,12.4656
2024-04-06T03:10:37.732Z,12.6631
2024-04-06T03:11:39.186Z,13.1137
2024-04-06T03:12:40.599Z,12.8902
2024-04-06T03:13:42.068Z,13.3209
2024-04-06T03:14:43.377Z,13.1800
2024-04-06T03:15:44.952Z,13.0602
2024-04-06T03:16:46.385Z,13.1004
2024-04-06T03:17:47.815Z,13.1324
2024-04-06T03:18:49.259Z,12.9760
2024-04-06T03:19:50.715Z,12.8277
2024-04-06T03:20:52.019Z,12.8623
2024-04-06T03:21:53.308Z,12.7668
2024-04-06T03:22:54.712Z,12.8921
2024-04-06T03:23:56.234Z,12.7251
2024-04-06T03:24:57.696Z,12.4905
2024-04-06T03:25:59.028Z,12.4787
2024-04-06T03:27:00.450Z,12.2999
2024-04-06T03:28:01.944Z,12.2952
2024-04-06T03:29:03.335Z,12.5277
2024-04-06T03:30:04.798Z,12.2080
2024-04-06T03:31:06.212Z,12.3561
2024-04-06T03:32:07.746Z,12.3120
2024-04-06T03:33:09.106Z,12.3511
2024-04-06T03:34:10.545Z,12.1722
2024-04-06T03:35:11.988Z,11.8791
2024-04-06T03:36:13.427Z,11.6661
2024-04-06T03:37:14.869Z,11.6892
2024-04-06T03:38:16.301Z,11.8669
2024-04-06T03:39:17.731Z,12.0605
2024-04-06T03:40:19.014Z,12.0560
2024-04-06T03:41:20.344Z,11.8483
2024-04-06T03:42:21.752Z,11.9217
2024-04-06T03:43:23.042Z,12.0877
2024-04-06T03:44:24.437Z,11.9741
2024-04-06T03:45:25.754Z,12.0967
2024-04-06T03:46:27.064Z,12.1163
2024-04-06T03:47:28.379Z,12.1545
2024-04-06T03:48:29.734Z,12.2803
2024-04-06T03:49:31.170Z,12.3216
2024-04-06T03:50:32.674Z,12.2423
2024-04-06T03:51:34.027Z,12.3196
2024-04-06T03:52:35.339Z,12.0015
2024-04-06T03:53:36.620Z,11.8706
2024-04-06T03:54:38.055Z,11.8254
2024-04-06T03:55:39.492Z,11.7244
2024-04-06T03:56:40.946Z,12.0203
2024-04-06T03:57:42.375Z,12.3331
2024-04-06T03:58:43.826Z,12.2016
2024-04-06T03:59:45.266Z,12.1911
2024-04-06T04:00:46.704Z,12.1592
2024-04-06T04:01:48.144Z,12.2164
2024-04-06T04:02:49.574Z,12.1603
2024-04-06T04:03:51.015Z,12.1439
2024-04-06T04:04:52.455Z,11.9531
2024-04-06T04:05:53.910Z,12.2118
2024-04-06T04:06:55.354Z,12.2316
2024-04-06T04:07:56.784Z,12.0107
2024-04-06T04:08:58.234Z,12.1323
2024-04-06T04:09:59.655Z,12.2068
2024-04-06T04:11:01.112Z,12.1254
2024-04-06T04:12:02.530Z,12.2537
2024-04-06T04:13:03.978Z,12.1771
2024-04-06T04:14:05.409Z,12.1724
2024-04-06T04:15:06.853Z,12.3873
2024-04-06T04:16:08.286Z,12.1673
2024-04-06T04:17:09.735Z,12.1743
2024-04-06T04:18:11.174Z,12.2118
2024-04-06T04:19:12.609Z,11.9063
2024-04-06T04:20:13.905Z,12.0318
2024-04-06T04:21:15.198Z,11.9055
2024-04-06T04:22:16.504Z,11.9817
2024-04-06T04:23:17.849Z,11.9152
2024-04-06T04:24:19.164Z,11.9305
2024-04-06T04:25:20.616Z,12.1614
2024-04-06T04:26:22.055Z,12.1788
2024-04-06T04:27:23.498Z,12.1312
2024-04-06T04:28:24.936Z,12.1102
2024-04-06T04:29:26.395Z,12.1898
2024-04-06T04:30:27.826Z,12.3098
2024-04-06T04:31:29.286Z,12.2017
2024-04-06T04:32:30.754Z,11.9567
2024-04-06T04:33:32.140Z,11.8998
2024-04-06T04:34:33.580Z,11.9873
2024-04-06T04:35:35.051Z,12.0162
2024-04-06T04:36:36.386Z,11.7937
2024-04-06T04:37:37.688Z,12.0345
2024-04-06T04:38:39.056Z,12.2372
2024-04-06T04:39:40.462Z,12.1466
2024-04-06T04:40:41.742Z,12.1183
2024-04-06T04:41:43.067Z,12.1080
2024-04-06T04:42:44.462Z,11.9562
2024-04-06T04:43:45.906Z,12.1874
2024-04-06T04:44:53.483Z,12.2690
2024-04-06T04:45:47.529Z,12.0907
2024-04-06T04:46:49.075Z,12.0403
2024-04-06T04:47:50.470Z,11.6955
2024-04-06T04:48:51.774Z,11.6864
2024-04-06T04:49:53.297Z,11.6086
2024-04-06T04:50:54.599Z,11.4489
2024-04-06T04:51:55.949Z,11.2266
2024-04-06T04:52:57.238Z,11.1357
2024-04-06T04:53:58.707Z,10.7557
2024-04-06T04:55:00.171Z,10.5628
2024-04-06T04:56:01.607Z,10.3148
2024-04-06T04:57:02.908Z,10.2475
2024-04-06T04:58:04.297Z,10.2453
2024-04-06T04:59:05.630Z,10.2009
2024-04-06T05:00:07.011Z,10.3650
2024-04-06T05:01:08.539Z,10.6699
2024-04-06T05:02:09.906Z,10.6262
2024-04-06T05:03:11.337Z,10.5519
2024-04-06T05:04:12.607Z,10.6387
2024-04-06T05:05:13.896Z,10.8055
2024-04-06T05:06:15.203Z,11.0585
2024-04-06T05:07:16.458Z,11.0661
2024-04-06T05:08:17.759Z,11.6793
2024-04-06T05:09:19.010Z,12.0784
2024-04-06T05:10:20.259Z,11.9569
2024-04-06T05:11:21.614Z,11.8478
2024-04-06T05:12:23.023Z,12.1892
2024-04-06T05:13:24.471Z,11.8859
2024-04-06T05:14:25.918Z,11.9810
2024-04-06T05:15:27.349Z,12.2105
2024-04-06T05:16:28.833Z,12.2519
2024-04-06T05:17:30.244Z,12.1328
2024-04-06T05:18:31.677Z,12.2237
2024-04-06T05:19:32.982Z,11.9933
2024-04-06T05:20:34.324Z,11.7871
2024-04-06T05:21:35.682Z,11.8658
2024-04-06T05:22:37.112Z,11.8855
2024-04-06T05:23:38.627Z,11.9534
2024-04-06T05:24:39.965Z,12.1125
2024-04-06T05:25:41.234Z,11.9267
2024-04-06T05:26:42.589Z,12.0018
2024-04-06T05:27:43.962Z,12.1535
2024-04-06T05:28:45.231Z,12.2204
2024-04-06T05:29:46.543Z,12.0498
2024-04-06T05:30:47.986Z,12.1834
2024-04-06T05:31:49.418Z,12.1655
2024-04-06T05:32:50.698Z,12.2404
2024-04-06T05:33:51.994Z,12.3371
2024-04-06T05:34:53.432Z,12.3692
2024-04-06T05:35:54.858Z,12.2875
2024-04-06T05:36:56.314Z,12.2671
2024-04-06T05:37:57.738Z,12.3386
2024-04-06T05:38:59.006Z,12.3753
2024-04-06T05:40:00.298Z,12.6119
2024-04-06T05:41:01.737Z,12.5836
2024-04-06T05:42:03.191Z,12.5324
2024-04-06T05:43:04.624Z,12.5685
2024-04-06T05:44:07.597Z,12.7382
2024-04-06T05:45:09.007Z,12.7294
2024-04-06T05:46:10.259Z,12.9150
2024-04-06T05:47:11.669Z,13.0913
2024-04-06T05:48:13.099Z,13.1824
2024-04-06T05:49:14.607Z,13.0599
2024-04-06T05:50:15.988Z,13.1153
2024-04-06T05:51:17.418Z,13.2985
2024-04-06T05:52:18.707Z,13.4299
2024-04-06T05:53:20.066Z,13.4472
2024-04-06T05:54:21.420Z,13.5093
2024-04-06T05:55:22.666Z,13.6032
2024-04-06T05:56:23.987Z,13.5393
2024-04-06T05:57:25.431Z,13.4233
2024-04-06T05:58:26.861Z,13.4510
2024-04-06T05:59:28.321Z,13.4565
2024-04-06T06:00:29.740Z,13.5002
2024-04-06T06:01:31.199Z,13.4940
2024-04-06T06:02:32.728Z,13.5284
2024-04-06T06:03:33.979Z,13.5221
2024-04-06T06:04:35.499Z,13.5603
2024-04-06T06:05:36.789Z,13.6271
2024-04-06T06:06:38.051Z,13.7377
2024-04-06T06:07:39.512Z,13.7212
2024-04-06T06:08:40.953Z,13.5702
2024-04-06T06:09:42.377Z,13.5740
2024-04-06T06:10:43.884Z,13.4898
2024-04-06T06:11:45.271Z,13.7111
2024-04-06T06:12:46.717Z,13.5679
2024-04-06T06:13:48.147Z,13.5072
2024-04-06T06:14:49.576Z,13.6670
2024-04-06T06:15:51.026Z,13.6414
2024-04-06T06:16:52.507Z,13.6257
2024-04-06T06:17:53.923Z,13.6356
2024-04-06T06:18:55.326Z,13.5410
2024-04-06T06:19:56.595Z,13.7612
2024-04-06T06:20:58.007Z,13.8485
2024-04-06T06:21:59.346Z,13.8712
2024-04-06T06:23:00.792Z,13.8537
2024-04-06T06:24:02.254Z,13.9698
2024-04-06T06:25:03.676Z,14.0678
2024-04-06T06:26:05.107Z,14.0320
2024-04-06T06:27:06.568Z,13.9949
2024-04-06T06:28:07.985Z,14.1850
2024-04-06T06:29:09.448Z,14.1572
2024-04-06T06:30:10.868Z,14.3410
2024-04-06T06:31:12.303Z,14.2620
2024-04-06T06:32:13.753Z,14.2359
2024-04-06T06:33:15.195Z,14.2284
2024-04-06T06:34:16.654Z,14.4349
2024-04-06T06:35:18.069Z,14.3236
2024-04-06T06:38:20.511Z,14.3000
2024-04-06T06:41:23.573Z,14.5210
2024-04-06T06:42:24.934Z,14.3760
2024-04-06T06:43:26.384Z,14.4740
2024-04-06T06:44:27.838Z,14.5232
2024-04-06T06:45:29.269Z,14.5915
2024-04-06T06:46:30.693Z,14.6415
2024-04-06T06:47:32.179Z,14.6184
2024-04-06T06:48:33.570Z,14.6771
2024-04-06T06:49:35.017Z,14.7272
2024-04-06T06:50:36.455Z,14.7590
2024-04-06T06:51:37.896Z,14.6167
2024-04-06T06:52:39.352Z,14.7068
2024-04-06T06:53:40.622Z,14.7205
2024-04-06T06:54:42.828Z,14.6054
2024-04-06T06:55:44.237Z,14.6093
2024-04-06T06:56:45.682Z,14.4301
2024-04-06T06:57:47.131Z,14.4150
2024-04-06T06:58:48.366Z,14.2637
2024-04-06T07:00:50.346Z,14.3779
2024-04-06T07:01:51.650Z,14.2739
2024-04-06T07:02:52.909Z,14.0966
2024-04-06T07:03:54.208Z,14.1336
2024-04-06T07:04:55.458Z,14.2851
2024-04-06T07:05:56.897Z,14.4134
2024-04-06T07:07:58.937Z,14.4996
2024-04-06T07:09:02.748Z,14.5843
2024-04-06T07:10:00.786Z,14.5170
2024-04-06T07:11:02.078Z,14.5117
2024-04-06T07:12:03.325Z,14.4791
2024-04-06T07:13:04.652Z,14.5006
2024-04-06T07:14:06.082Z,14.5706
2024-04-06T07:15:07.498Z,14.6671
2024-04-06T07:16:08.775Z,14.5650
2024-04-06T07:17:10.060Z,14.7343
2024-04-06T07:18:11.329Z,14.6283
2024-04-06T07:19:12.927Z,14.6528
2024-04-06T07:20:14.190Z,14.8845
2024-04-06T07:21:15.505Z,14.8458
2024-04-06T07:22:16.956Z,15.0128
2024-04-06T07:23:18.286Z,14.9608
2024-04-06T07:24:19.553Z,14.9622
2024-04-06T07:25:20.814Z,15.1163
2024-04-06T07:26:22.078Z,15.1408
2024-04-06T07:27:23.503Z,15.0505
2024-04-06T07:28:24.942Z,15.0229
2024-04-06T07:29:26.386Z,15.2462
2024-04-06T07:30:27.833Z,15.3422
2024-04-06T07:31:29.279Z,15.3981
2024-04-06T07:32:30.770Z,15.3692
2024-04-06T07:33:32.124Z,15.4485
2024-04-06T07:34:33.595Z,15.3702
2024-04-06T07:35:35.020Z,15.4033
2024-04-06T07:36:36.471Z,15.6033
2024-04-06T07:37:37.898Z,15.6202
2024-04-06T07:39:20.084Z,15.8588
2024-04-06T07:39:39.298Z,15.7493
2024-04-06T07:40:40.625Z,15.6851
2024-04-06T07:41:42.055Z,15.7148
2024-04-06T07:42:43.498Z,15.8186
2024-04-06T07:43:44.944Z,15.8089
2024-04-06T07:44:46.380Z,15.8631
2024-04-06T07:45:47.671Z,15.9174
2024-04-06T07:46:49.525Z,15.9229
2024-04-06T07:47:50.968Z,15.9831
2024-04-06T07:48:52.381Z,16.1640
2024-04-06T07:49:53.835Z,16.0970
2024-04-06T07:50:55.286Z,15.9320
2024-04-06T07:51:56.728Z,16.1158
2024-04-06T07:52:58.151Z,16.1730
2024-04-06T07:53:59.442Z,15.9677
2024-04-06T07:55:00.727Z,15.8681
2024-04-06T07:56:02.018Z,15.9424
2024-04-06T07:57:03.425Z,15.7399
2024-04-06T07:58:04.713Z,15.7566
2024-04-06T07:59:06.014Z,15.8255
2024-04-06T08:00:07.454Z,15.8441
2024-04-06T08:01:08.797Z,15.8251
2024-04-06T08:02:10.208Z,16.1284
2024-04-06T08:03:11.657Z,16.2883
2024-04-06T08:04:12.981Z,16.3627
2024-04-06T08:05:14.305Z,16.1215
2024-04-06T08:06:15.697Z,15.8422
2024-04-06T08:07:17.131Z,15.7307
2024-04-06T08:08:18.456Z,15.6458
2024-04-06T08:09:19.745Z,15.8006
2024-04-06T08:10:21.226Z,15.9023
2024-04-06T08:11:22.537Z,16.0279
2024-04-06T08:12:23.997Z,15.9696
2024-04-06T08:13:25.431Z,15.9229
2024-04-06T08:14:26.846Z,16.0158
2024-04-06T08:15:30.830Z,16.2666
2024-04-06T08:16:29.738Z,16.1120
2024-04-06T08:17:31.197Z,16.1311
2024-04-06T08:18:32.620Z,16.1183
2024-04-06T08:19:34.066Z,16.3742
2024-04-06T08:20:35.494Z,16.4892
2024-04-06T08:21:36.788Z,16.4991
2024-04-06T08:22:38.053Z,16.6427
2024-04-06T08:23:39.502Z,16.9265
2024-04-06T08:24:40.996Z,17.1643
2024-04-06T08:25:42.411Z,16.8660
2024-04-06T08:26:43.813Z,16.9026
2024-04-06T08:27:45.097Z,16.8018
2024-04-06T08:28:46.526Z,16.8638
2024-04-06T08:29:47.818Z,16.9373
2024-04-06T08:30:49.121Z,17.1544
2024-04-06T08:31:50.462Z,17.0236
2024-04-06T08:32:51.730Z,17.1224
2024-04-06T08:33:53.036Z,17.4098
2024-04-06T08:34:54.393Z,16.9345
2024-04-06T08:35:55.822Z,16.8597
2024-04-06T08:36:57.270Z,17.0616
2024-04-06T08:37:58.723Z,17.1948
2024-04-06T08:39:00.148Z,17.1313
2024-04-06T08:40:01.604Z,16.8184
2024-04-06T08:41:03.017Z,16.9508
2024-04-06T08:42:04.459Z,17.2628
2024-04-06T08:43:05.911Z,17.2322
2024-04-06T08:44:07.348Z,17.1715
2024-04-06T08:45:08.765Z,17.3134
2024-04-06T08:46:10.252Z,17.4174
2024-04-06T08:47:11.656Z,17.3490
2024-04-06T08:48:13.102Z,17.6935
2024-04-06T08:49:14.580Z,17.5064
2024-04-06T08:50:15.986Z,17.6707
2024-04-06T08:51:17.422Z,18.0194
2024-04-06T08:52:18.857Z,18.0488
2024-04-06T08:53:20.343Z,18.0238
2024-04-06T08:54:21.767Z,18.1930
2024-04-06T08:55:23.177Z,18.4635
2024-04-06T08:56:24.627Z,18.5444
2024-04-06T08:57:26.056Z,18.3528
2024-04-06T08:58:27.356Z,18.8265
2024-04-06T08:59:28.636Z,19.3672
2024-04-06T09:00:30.098Z,19.2872
2024-04-06T09:01:31.488Z,19.5982
2024-04-06T09:02:32.935Z,20.6907
2024-04-06T09:03:34.389Z,19.0504
2024-04-06T09:04:35.839Z,19.0213
2024-04-06T09:05:37.247Z,18.5351
2024-04-06T09:06:38.694Z,18.7989
2024-04-06T09:07:40.133Z,18.9407
2024-04-06T09:08:41.580Z,19.4693
2024-04-06T09:09:43.012Z,19.9374
2024-04-06T09:10:44.464Z,20.1146
2024-04-06T09:11:45.894Z,19.9664
2024-04-06T09:12:47.379Z,19.3194
2024-04-06T09:13:48.907Z,20.2427
2024-04-06T09:14:50.245Z,19.0667
2024-04-06T09:15:51.662Z,19.6282
2024-04-06T09:16:53.170Z,19.6022
2024-04-06T09:17:54.541Z,20.2061
2024-04-06T09:18:55.979Z,19.4781
2024-04-06T09:19:57.425Z,20.1235
2024-04-06T09:20:58.863Z,20.2011
2024-04-06T09:22:00.300Z,20.3522
2024-04-06T09:23:01.577Z,19.7445
2024-04-06T09:24:02.844Z,19.7641
2024-04-06T09:25:04.338Z,20.2701
2024-04-06T09:26:05.603Z,20.0943
2024-04-06T09:27:06.895Z,19.4394
2024-04-06T09:28:08.318Z,19.4055
2024-04-06T09:29:09.753Z,19.3788
2024-04-06T09:30:11.125Z,19.8345
2024-04-06T09:31:12.459Z,20.3473
2024-04-06T09:32:13.744Z,21.0259
2024-04-06T09:33:15.180Z,20.9585
2024-04-06T09:34:16.649Z,20.3582
2024-04-06T09:35:18.120Z,20.9947
2024-04-06T09:36:19.587Z,20.9433
2024-04-06T09:37:20.944Z,20.8737
2024-04-06T09:38:25.663Z,20.7011
2024-04-06T09:39:23.826Z,19.7847
2024-04-06T09:40:25.254Z,20.3115
2024-04-06T09:41:26.698Z,20.0074
2024-04-06T09:42:27.977Z,19.2910
2024-04-06T09:43:29.276Z,19.8543
2024-04-06T09:44:30.708Z,19.7839
2024-04-06T09:45:32.145Z,19.7555
2024-04-06T09:46:33.596Z,20.9768
2024-04-06T09:47:35.014Z,20.8791
2024-04-06T09:48:36.455Z,21.0578
2024-04-06T09:49:37.815Z,20.5256
2024-04-06T09:50:39.105Z,19.2005
2024-04-06T09:51:40.465Z,19.6216
2024-04-06T09:52:41.898Z,20.0311
2024-04-06T09:53:43.343Z,19.6188
2024-04-06T09:54:44.776Z,19.8503
2024-04-06T09:55:46.225Z,20.4031
2024-04-06T09:56:47.679Z,20.0260
2024-04-06T09:57:48.941Z,19.8753
2024-04-06T09:58:50.249Z,20.1636
2024-04-06T09:59:52.397Z,20.0337
2024-04-06T10:00:54.667Z,19.4900
2024-04-06T10:01:56.106Z,19.8438
2024-04-06T10:02:57.548Z,19.8788
2024-04-06T10:03:58.978Z,19.7855
2024-04-06T10:05:00.347Z,19.6729
2024-04-06T10:06:01.621Z,19.5731
2024-04-06T10:07:02.908Z,19.7173
2024-04-06T10:08:04.252Z,19.6725
2024-04-06T10:09:05.560Z,19.6188
2024-04-06T10:10:07.016Z,20.0206
2024-04-06T10:11:08.464Z,20.0721
2024-04-06T10:12:09.904Z,19.7911
2024-04-06T10:13:11.350Z,19.7852
2024-04-06T10:14:13.795Z,19.9045
2024-04-06T10:15:16.079Z,20.2683
2024-04-06T10:16:17.456Z,20.9928
2024-04-06T10:17:18.744Z,20.8896
2024-04-06T10:18:20.138Z,20.6683
2024-04-06T10:19:21.599Z,20.4461
2024-04-06T10:20:22.855Z,20.4656
2024-04-06T10:21:24.141Z,21.2207
2024-04-06T10:22:25.600Z,21.1843
2024-04-06T10:23:27.028Z,20.8979
2024-04-06T10:24:28.458Z,20.7025
2024-04-06T10:25:29.898Z,20.6104
2024-04-06T10:26:31.341Z,20.6821
2024-04-06T10:27:32.772Z,20.5234
2024-04-06T10:28:34.234Z,20.3502
2024-04-06T10:29:35.656Z,20.2630
2024-04-06T10:30:37.120Z,20.1256
2024-04-06T10:31:46.058Z,20.1174
2024-04-06T10:32:38.668Z,20.2000
2024-04-06T10:33:40.116Z,20.3283
2024-04-06T10:34:49.690Z,20.1889
2024-04-06T10:35:41.597Z,21.1718
2024-04-06T10:36:42.919Z,20.9295
2024-04-06T10:37:44.246Z,20.3822
2024-04-06T10:38:45.627Z,20.7367
2024-04-06T10:39:46.881Z,20.3913
2024-04-06T10:40:48.308Z,20.0472
2024-04-06T10:41:49.855Z,20.5215
2024-04-06T10:42:51.176Z,20.3627
2024-04-06T10:43:52.622Z,19.8612
2024-04-06T10:44:54.056Z,20.5091
2024-04-06T10:45:55.528Z,20.7096
2024-04-06T10:46:56.990Z,20.9529
2024-04-06T10:47:58.404Z,21.5542
2024-04-06T10:48:59.767Z,21.1428
2024-04-06T10:50:01.125Z,21.0558
2024-04-06T10:51:02.447Z,21.0950
2024-04-06T10:52:03.819Z,21.6643
2024-04-06T10:53:05.242Z,21.2826
2024-04-06T10:54:06.691Z,21.0456
2024-04-06T10:55:08.131Z,21.4533
2024-04-06T10:56:09.658Z,22.0997
2024-04-06T10:57:11.101Z,21.8756
2024-04-06T10:58:12.481Z,21.9937
2024-04-06T10:59:13.814Z,21.8963
2024-04-06T11:00:15.104Z,22.6685
2024-04-06T11:01:16.483Z,22.6242
2024-04-06T11:02:17.904Z,21.9814
2024-04-06T11:03:19.348Z,21.6820
2024-04-06T11:04:20.898Z,21.4805
2024-04-06T11:05:22.266Z,22.0095
2024-04-06T11:06:23.669Z,22.4739
2024-04-06T11:07:25.099Z,22.1098
2024-04-06T11:08:26.365Z,22.1272
2024-04-06T11:09:27.645Z,22.4611
2024-04-06T11:10:28.934Z,23.1080
2024-04-06T11:11:30.209Z,22.8026
2024-04-06T11:12:31.657Z,22.3840
2024-04-06T11:13:33.102Z,23.3587
2024-04-06T11:14:34.537Z,23.8318
2024-04-06T11:15:35.987Z,22.6426
2024-04-06T11:16:37.539Z,22.3394
2024-04-06T11:17:38.931Z,22.6730
2024-04-06T11:18:42.159Z,22.5034
2024-04-06T11:19:43.628Z,23.1281
2024-04-06T11:20:45.087Z,22.8598
2024-04-06T11:21:46.434Z,23.6391
2024-04-06T11:22:47.768Z,23.1122
2024-04-06T11:23:49.405Z,23.3570
2024-04-06T11:24:50.847Z,22.5394
2024-04-06T11:25:52.274Z,24.6741
2024-04-06T11:26:53.717Z,22.8383
2024-04-06T11:27:55.204Z,24.1048
2024-04-06T11:28:56.608Z,24.7201
2024-04-06T11:29:58.880Z,24.6505
2024-04-06T11:31:01.430Z,24.3440
2024-04-06T11:32:02.699Z,24.3352
2024-04-06T11:33:04.001Z,24.1233
2024-04-06T11:34:05.418Z,23.5524
2024-04-06T11:35:06.872Z,24.2870
2024-04-06T11:36:08.308Z,23.3446
2024-04-06T11:37:09.815Z,23.6044
2024-04-06T11:38:11.175Z,23.8020
2024-04-06T11:39:12.612Z,23.8555
2024-04-06T11:40:14.062Z,23.8280
2024-04-06T11:41:15.498Z,24.1926
2024-04-06T11:42:16.956Z,23.8464
2024-04-06T11:43:18.546Z,24.8269
2024-04-06T11:44:19.805Z,24.1241
2024-04-06T11:45:21.284Z,24.2677
2024-04-06T11:46:22.754Z,24.2716
2024-04-06T11:47:24.147Z,25.2799
2024-04-06T11:48:26.982Z,25.4942
2024-04-06T11:49:26.108Z,24.6196
2024-04-06T11:50:27.421Z,24.6855
2024-04-06T11:51:28.762Z,25.1830
2024-04-06T11:52:30.037Z,25.6406
2024-04-06T11:53:31.518Z,24.9587
2024-04-06T11:54:32.945Z,25.0812
2024-04-06T11:55:34.387Z,24.9339
2024-04-06T11:56:35.806Z,24.1970
2024-04-06T11:57:37.266Z,25.3746
2024-04-06T11:58:38.533Z,25.3101
2024-04-06T11:59:39.854Z,24.0217
2024-04-06T12:00:41.279Z,24.5215
2024-04-06T12:01:42.711Z,26.5785
2024-04-06T12:02:44.144Z,27.6798
2024-04-06T12:03:45.630Z,26.1632
2024-04-06T12:04:47.022Z,26.2723
2024-04-06T12:05:48.467Z,25.9235
2024-04-06T12:06:49.934Z,27.1009
2024-04-06T12:07:51.344Z,26.6898
2024-04-06T12:08:52.762Z,26.1883
2024-04-06T12:09:54.225Z,27.3112
2024-04-06T12:10:55.656Z,26.1297
2024-04-06T12:11:59.143Z,26.8882
2024-04-06T12:13:00.528Z,26.9006
2024-04-06T12:14:01.898Z,25.5810
2024-04-06T12:15:03.188Z,26.4621
2024-04-06T12:16:04.509Z,27.9140
2024-04-06T12:17:05.824Z,27.6589
2024-04-06T12:18:07.141Z,27.3991
2024-04-06T12:19:08.457Z,27.6469
2024-04-06T12:20:09.922Z,27.0967
2024-04-06T12:21:11.331Z,28.2843
2024-04-06T12:22:12.777Z,26.0114
2024-04-06T12:23:14.221Z,26.4077
2024-04-06T12:24:15.686Z,27.7907
2024-04-06T12:25:17.160Z,26.9691
2024-04-06T12:26:18.537Z,26.4908
2024-04-06T12:27:19.864Z,26.0058
2024-04-06T12:28:21.157Z,25.7579